sensor_id;sensor_type;location;lat;lon;timestamp;temperature;humidity
70593;DHT22;58294;42.988;20.338;2022-10-16T00:00:38;205.20;1894.40
70593;DHT22;58294;42.988;20.338;2022-10-16T00:03:04;205.10;1920.00
70593;DHT22;58294;42.988;20.338;2022-10-16T00:05:30;205.10;1894.40
70593;DHT22;58294;42.988;20.338;2022-10-16T00:07:56;205.00;1920.00
70593;DHT22;58294;42.988;20.338;2022-10-16T00:10:22;205.00;1920.00
70593;DHT22;58294;42.988;20.338;2022-10-16T00:12:49;205.00;1945.60
70593;DHT22;58294;42.988;20.338;2022-10-16T00:15:15;205.10;1971.20
70593;DHT22;58294;42.988;20.338;2022-10-16T00:17:40;205.20;1971.20
70593;DHT22;58294;42.988;20.338;2022-10-16T00:20:07;205.20;1971.20
70593;DHT22;58294;42.988;20.338;2022-10-16T00:22:33;205.20;1971.20
70593;DHT22;58294;42.988;20.338;2022-10-16T00:24:59;205.20;1945.60
70593;DHT22;58294;42.988;20.338;2022-10-16T00:27:24;205.20;1971.20
70593;DHT22;58294;42.988;20.338;2022-10-16T00:29:51;205.30;1971.20
70593;DHT22;58294;42.988;20.338;2022-10-16T00:32:19;205.30;1945.60
70593;DHT22;58294;42.988;20.338;2022-10-16T00:34:45;205.30;1971.20
70593;DHT22;58294;42.988;20.338;2022-10-16T00:37:11;205.40;1945.60
70593;DHT22;58294;42.988;20.338;2022-10-16T00:39:37;205.40;1945.60
70593;DHT22;58294;42.988;20.338;2022-10-16T00:42:03;205.40;1945.60
70593;DHT22;58294;42.988;20.338;2022-10-16T00:44:43;205.40;1971.20
70593;DHT22;58294;42.988;20.338;2022-10-16T00:47:34;205.30;1945.60
70593;DHT22;58294;42.988;20.338;2022-10-16T00:50:08;205.30;1945.60
70593;DHT22;58294;42.988;20.338;2022-10-16T00:52:35;205.30;1945.60
70593;DHT22;58294;42.988;20.338;2022-10-16T00:55:03;205.30;1945.60
70593;DHT22;58294;42.988;20.338;2022-10-16T00:57:30;205.20;1945.60
70593;DHT22;58294;42.988;20.338;2022-10-16T00:59:57;205.20;1945.60
70593;DHT22;58294;42.988;20.338;2022-10-16T01:02:23;205.30;1945.60
70593;DHT22;58294;42.988;20.338;2022-10-16T01:04:53;205.30;1945.60
70593;DHT22;58294;42.988;20.338;2022-10-16T01:10:06;205.20;1971.20
70593;DHT22;58294;42.988;20.338;2022-10-16T01:15:37;205.30;1971.20
70593;DHT22;58294;42.988;20.338;2022-10-16T01:18:24;205.30;1971.20
70593;DHT22;58294;42.988;20.338;2022-10-16T01:21:08;205.40;1996.80
70593;DHT22;58294;42.988;20.338;2022-10-16T01:26:26;205.40;1996.80
70593;DHT22;58294;42.988;20.338;2022-10-16T01:32:52;205.40;2022.40
70593;DHT22;58294;42.988;20.338;2022-10-16T01:35:05;205.50;1996.80
70593;DHT22;58294;42.988;20.338;2022-10-16T01:38:38;205.60;1996.80
70593;DHT22;58294;42.988;20.338;2022-10-16T01:40:34;205.60;1996.80
70593;DHT22;58294;42.988;20.338;2022-10-16T01:43:12;205.60;1996.80
70593;DHT22;58294;42.988;20.338;2022-10-16T01:45:40;205.60;2022.40
70593;DHT22;58294;42.988;20.338;2022-10-16T01:48:07;205.60;2022.40
70593;DHT22;58294;42.988;20.338;2022-10-16T01:50:39;205.60;2022.40
70593;DHT22;58294;42.988;20.338;2022-10-16T01:53:07;205.70;2022.40
70593;DHT22;58294;42.988;20.338;2022-10-16T01:55:38;205.70;2022.40
70593;DHT22;58294;42.988;20.338;2022-10-16T01:58:07;205.70;1996.80
70593;DHT22;58294;42.988;20.338;2022-10-16T02:00:37;205.70;1971.20
70593;DHT22;58294;42.988;20.338;2022-10-16T02:03:04;205.70;1996.80
70593;DHT22;58294;42.988;20.338;2022-10-16T02:05:37;205.60;1996.80
70593;DHT22;58294;42.988;20.338;2022-10-16T02:08:04;205.60;1996.80
70593;DHT22;58294;42.988;20.338;2022-10-16T02:10:30;205.60;1996.80
70593;DHT22;58294;42.988;20.338;2022-10-16T02:13:11;205.60;1996.80
70593;DHT22;58294;42.988;20.338;2022-10-16T02:15:38;205.60;2022.40
70593;DHT22;58294;42.988;20.338;2022-10-16T02:18:05;205.70;1996.80
70593;DHT22;58294;42.988;20.338;2022-10-16T02:20:37;205.70;1996.80
70593;DHT22;58294;42.988;20.338;2022-10-16T02:23:07;205.60;1996.80
70593;DHT22;58294;42.988;20.338;2022-10-16T02:25:40;205.60;1996.80
70593;DHT22;58294;42.988;20.338;2022-10-16T02:30:45;205.50;2022.40
70593;DHT22;58294;42.988;20.338;2022-10-16T02:33:14;205.50;2048.00
70593;DHT22;58294;42.988;20.338;2022-10-16T02:35:42;205.50;2073.60
70593;DHT22;58294;42.988;20.338;2022-10-16T02:38:11;205.60;2073.60
70593;DHT22;58294;42.988;20.338;2022-10-16T02:40:37;205.60;2073.60
70593;DHT22;58294;42.988;20.338;2022-10-16T02:43:04;205.70;2073.60
70593;DHT22;58294;42.988;20.338;2022-10-16T02:45:31;205.70;2073.60
70593;DHT22;58294;42.988;20.338;2022-10-16T02:47:57;205.70;2048.00
70593;DHT22;58294;42.988;20.338;2022-10-16T02:50:22;230.40;2022.40
70593;DHT22;58294;42.988;20.338;2022-10-16T02:52:49;205.70;2022.40
70593;DHT22;58294;42.988;20.338;2022-10-16T02:55:15;205.70;2048.00
70593;DHT22;58294;42.988;20.338;2022-10-16T02:57:41;205.70;2048.00
70593;DHT22;58294;42.988;20.338;2022-10-16T03:00:13;205.70;2048.00
70593;DHT22;58294;42.988;20.338;2022-10-16T03:02:39;205.70;2048.00
70593;DHT22;58294;42.988;20.338;2022-10-16T03:05:06;205.70;2022.40
70593;DHT22;58294;42.988;20.338;2022-10-16T03:07:32;205.70;2022.40
70593;DHT22;58294;42.988;20.338;2022-10-16T03:09:59;205.60;2022.40
70593;DHT22;58294;42.988;20.338;2022-10-16T03:12:28;205.60;2022.40
70593;DHT22;58294;42.988;20.338;2022-10-16T03:14:55;205.70;2022.40
70593;DHT22;58294;42.988;20.338;2022-10-16T03:17:22;205.70;2022.40
70593;DHT22;58294;42.988;20.338;2022-10-16T03:19:48;205.70;2048.00
70593;DHT22;58294;42.988;20.338;2022-10-16T03:22:14;205.70;2022.40
70593;DHT22;58294;42.988;20.338;2022-10-16T03:24:40;205.60;2048.00
70593;DHT22;58294;42.988;20.338;2022-10-16T03:27:08;205.70;2073.60
70593;DHT22;58294;42.988;20.338;2022-10-16T03:29:34;205.70;2073.60
70593;DHT22;58294;42.988;20.338;2022-10-16T03:32:00;205.70;2022.40
70593;DHT22;58294;42.988;20.338;2022-10-16T03:34:26;205.60;2022.40
70593;DHT22;58294;42.988;20.338;2022-10-16T03:36:52;205.60;2048.00
70593;DHT22;58294;42.988;20.338;2022-10-16T03:39:19;205.60;2022.40
70593;DHT22;58294;42.988;20.338;2022-10-16T03:41:45;205.60;2022.40
70593;DHT22;58294;42.988;20.338;2022-10-16T03:44:14;205.50;2048.00
70593;DHT22;58294;42.988;20.338;2022-10-16T03:46:40;205.60;2048.00
70593;DHT22;58294;42.988;20.338;2022-10-16T03:49:06;205.60;2048.00
70593;DHT22;58294;42.988;20.338;2022-10-16T03:51:31;205.50;2048.00
70593;DHT22;58294;42.988;20.338;2022-10-16T03:53:57;205.50;2073.60
70593;DHT22;58294;42.988;20.338;2022-10-16T03:56:23;205.50;2048.00
70593;DHT22;58294;42.988;20.338;2022-10-16T03:58:49;205.50;2048.00
70593;DHT22;58294;42.988;20.338;2022-10-16T04:01:15;205.50;2022.40
70593;DHT22;58294;42.988;20.338;2022-10-16T04:03:41;205.50;2022.40
70593;DHT22;58294;42.988;20.338;2022-10-16T04:06:06;205.50;2022.40
70593;DHT22;58294;42.988;20.338;2022-10-16T04:08:32;205.40;2022.40
70593;DHT22;58294;42.988;20.338;2022-10-16T04:11:00;205.40;2048.00
70593;DHT22;58294;42.988;20.338;2022-10-16T04:13:26;205.40;2022.40
70593;DHT22;58294;42.988;20.338;2022-10-16T04:15:52;205.40;2022.40
70593;DHT22;58294;42.988;20.338;2022-10-16T04:18:18;205.30;2022.40
70593;DHT22;58294;42.988;20.338;2022-10-16T04:20:44;205.30;2048.00
70593;DHT22;58294;42.988;20.338;2022-10-16T04:23:10;205.30;2073.60
70593;DHT22;58294;42.988;20.338;2022-10-16T04:25:36;205.30;2048.00
70593;DHT22;58294;42.988;20.338;2022-10-16T04:28:01;205.30;2073.60
70593;DHT22;58294;42.988;20.338;2022-10-16T04:30:27;205.30;2099.20
70593;DHT22;58294;42.988;20.338;2022-10-16T04:32:53;205.30;2099.20
70593;DHT22;58294;42.988;20.338;2022-10-16T04:35:20;205.40;2124.80
70593;DHT22;58294;42.988;20.338;2022-10-16T04:37:47;205.40;2099.20
70593;DHT22;58294;42.988;20.338;2022-10-16T04:40:13;205.30;2073.60
70593;DHT22;58294;42.988;20.338;2022-10-16T04:42:39;205.20;2073.60
70593;DHT22;58294;42.988;20.338;2022-10-16T04:45:06;205.20;2073.60
70593;DHT22;58294;42.988;20.338;2022-10-16T04:47:32;205.10;2099.20
70593;DHT22;58294;42.988;20.338;2022-10-16T04:49:57;205.10;2124.80
70593;DHT22;58294;42.988;20.338;2022-10-16T04:52:26;205.10;2124.80
70593;DHT22;58294;42.988;20.338;2022-10-16T04:54:52;205.20;2124.80
70593;DHT22;58294;42.988;20.338;2022-10-16T04:57:19;205.20;2124.80
70593;DHT22;58294;42.988;20.338;2022-10-16T04:59:45;205.10;2124.80
70593;DHT22;58294;42.988;20.338;2022-10-16T05:02:10;205.10;2099.20
70593;DHT22;58294;42.988;20.338;2022-10-16T05:04:36;205.00;2099.20
70593;DHT22;58294;42.988;20.338;2022-10-16T05:07:02;205.00;2073.60
70593;DHT22;58294;42.988;20.338;2022-10-16T05:09:28;204.90;2099.20
70593;DHT22;58294;42.988;20.338;2022-10-16T05:11:53;204.90;2124.80
70593;DHT22;58294;42.988;20.338;2022-10-16T05:14:19;204.80;2099.20
70593;DHT22;58294;42.988;20.338;2022-10-16T05:16:45;204.80;2150.40
70593;DHT22;58294;42.988;20.338;2022-10-16T05:19:13;204.80;2150.40
70593;DHT22;58294;42.988;20.338;2022-10-16T05:21:39;204.80;2176.00
70593;DHT22;58294;42.988;20.338;2022-10-16T05:24:05;204.80;2176.00
70593;DHT22;58294;42.988;20.338;2022-10-16T05:26:30;204.80;2176.00
70593;DHT22;58294;42.988;20.338;2022-10-16T05:28:56;204.80;2176.00
70593;DHT22;58294;42.988;20.338;2022-10-16T05:31:22;204.80;2176.00
70593;DHT22;58294;42.988;20.338;2022-10-16T05:33:48;204.80;2201.60
70593;DHT22;58294;42.988;20.338;2022-10-16T05:36:14;204.80;2201.60
70593;DHT22;58294;42.988;20.338;2022-10-16T05:38:40;204.90;2201.60
70593;DHT22;58294;42.988;20.338;2022-10-16T05:41:05;204.90;2201.60
70593;DHT22;58294;42.988;20.338;2022-10-16T05:43:32;205.00;2201.60
70593;DHT22;58294;42.988;20.338;2022-10-16T05:46:05;205.00;2201.60
70593;DHT22;58294;42.988;20.338;2022-10-16T05:48:32;205.00;2201.60
70593;DHT22;58294;42.988;20.338;2022-10-16T05:51:03;205.10;2201.60
70593;DHT22;58294;42.988;20.338;2022-10-16T05:53:31;205.10;2201.60
70593;DHT22;58294;42.988;20.338;2022-10-16T05:55:57;205.10;2201.60
70593;DHT22;58294;42.988;20.338;2022-10-16T05:58:24;205.10;2227.20
70593;DHT22;58294;42.988;20.338;2022-10-16T06:01:01;205.10;2201.60
70593;DHT22;58294;42.988;20.338;2022-10-16T06:03:27;205.20;2227.20
70593;DHT22;58294;42.988;20.338;2022-10-16T06:05:53;205.20;2201.60
70593;DHT22;58294;42.988;20.338;2022-10-16T06:08:21;205.20;2201.60
70593;DHT22;58294;42.988;20.338;2022-10-16T06:10:48;205.20;2201.60
70593;DHT22;58294;42.988;20.338;2022-10-16T06:13:15;205.20;2227.20
70593;DHT22;58294;42.988;20.338;2022-10-16T06:15:42;205.30;2227.20
70593;DHT22;58294;42.988;20.338;2022-10-16T06:18:08;205.30;2227.20
70593;DHT22;58294;42.988;20.338;2022-10-16T06:20:35;205.30;2176.00
70593;DHT22;58294;42.988;20.338;2022-10-16T06:23:01;205.30;2176.00
70593;DHT22;58294;42.988;20.338;2022-10-16T06:25:27;205.20;2176.00
70593;DHT22;58294;42.988;20.338;2022-10-16T06:27:53;205.20;2201.60
70593;DHT22;58294;42.988;20.338;2022-10-16T06:30:18;205.20;2176.00
70593;DHT22;58294;42.988;20.338;2022-10-16T06:32:44;205.20;2176.00
70593;DHT22;58294;42.988;20.338;2022-10-16T06:35:10;205.20;2201.60
70593;DHT22;58294;42.988;20.338;2022-10-16T06:37:36;205.20;2201.60
70593;DHT22;58294;42.988;20.338;2022-10-16T06:40:02;205.20;2201.60
70593;DHT22;58294;42.988;20.338;2022-10-16T06:42:30;205.20;2201.60
70593;DHT22;58294;42.988;20.338;2022-10-16T06:44:56;205.20;2201.60
70593;DHT22;58294;42.988;20.338;2022-10-16T06:47:21;205.20;2201.60
70593;DHT22;58294;42.988;20.338;2022-10-16T06:49:47;205.20;2227.20
70593;DHT22;58294;42.988;20.338;2022-10-16T06:52:13;205.30;2227.20
70593;DHT22;58294;42.988;20.338;2022-10-16T06:54:39;205.30;2252.80
70593;DHT22;58294;42.988;20.338;2022-10-16T06:57:05;205.40;2252.80
70593;DHT22;58294;42.988;20.338;2022-10-16T06:59:30;205.40;2252.80
70593;DHT22;58294;42.988;20.338;2022-10-16T07:01:56;205.50;2252.80
70593;DHT22;58294;42.988;20.338;2022-10-16T07:04:22;205.50;2252.80
70593;DHT22;58294;42.988;20.338;2022-10-16T07:06:48;205.60;2252.80
70593;DHT22;58294;42.988;20.338;2022-10-16T07:09:14;205.70;2252.80
70593;DHT22;58294;42.988;20.338;2022-10-16T07:11:40;205.70;2252.80
70593;DHT22;58294;42.988;20.338;2022-10-16T07:14:16;230.40;2252.80
70593;DHT22;58294;42.988;20.338;2022-10-16T07:16:42;230.40;2252.80
70593;DHT22;58294;42.988;20.338;2022-10-16T07:19:08;230.50;2252.80
70593;DHT22;58294;42.988;20.338;2022-10-16T07:21:35;230.50;2252.80
70593;DHT22;58294;42.988;20.338;2022-10-16T07:24:01;230.50;2252.80
70593;DHT22;58294;42.988;20.338;2022-10-16T07:26:29;230.60;2252.80
70593;DHT22;58294;42.988;20.338;2022-10-16T07:28:56;230.70;2252.80
70593;DHT22;58294;42.988;20.338;2022-10-16T07:31:23;230.70;2252.80
70593;DHT22;58294;42.988;20.338;2022-10-16T07:33:49;230.90;2252.80
70593;DHT22;58294;42.988;20.338;2022-10-16T07:36:16;230.90;2252.80
70593;DHT22;58294;42.988;20.338;2022-10-16T07:38:43;230.90;2252.80
70593;DHT22;58294;42.988;20.338;2022-10-16T07:41:16;231.00;2252.80
70593;DHT22;58294;42.988;20.338;2022-10-16T07:43:46;231.00;2252.80
70593;DHT22;58294;42.988;20.338;2022-10-16T07:46:13;231.10;2252.80
70593;DHT22;58294;42.988;20.338;2022-10-16T07:48:39;231.20;2252.80
70593;DHT22;58294;42.988;20.338;2022-10-16T07:51:07;231.30;2252.80
70593;DHT22;58294;42.988;20.338;2022-10-16T07:53:33;231.30;2252.80
70593;DHT22;58294;42.988;20.338;2022-10-16T07:56:03;231.30;2252.80
70593;DHT22;58294;42.988;20.338;2022-10-16T07:58:30;231.30;2252.80
70593;DHT22;58294;42.988;20.338;2022-10-16T08:00:57;256.00;2252.80
70593;DHT22;58294;42.988;20.338;2022-10-16T08:03:24;256.10;2252.80
70593;DHT22;58294;42.988;20.338;2022-10-16T08:05:50;256.10;2252.80
70593;DHT22;58294;42.988;20.338;2022-10-16T08:08:17;256.30;2252.80
70593;DHT22;58294;42.988;20.338;2022-10-16T08:10:44;256.40;2252.80
70593;DHT22;58294;42.988;20.338;2022-10-16T08:13:10;256.40;2252.80
70593;DHT22;58294;42.988;20.338;2022-10-16T08:15:36;256.50;2252.80
70593;DHT22;58294;42.988;20.338;2022-10-16T08:18:04;256.60;2252.80
70593;DHT22;58294;42.988;20.338;2022-10-16T08:20:31;256.60;2252.80
70593;DHT22;58294;42.988;20.338;2022-10-16T08:22:57;256.70;2252.80
70593;DHT22;58294;42.988;20.338;2022-10-16T08:25:23;256.80;2252.80
70593;DHT22;58294;42.988;20.338;2022-10-16T08:27:50;281.60;2278.40
70593;DHT22;58294;42.988;20.338;2022-10-16T08:30:17;282.00;2278.40
70593;DHT22;58294;42.988;20.338;2022-10-16T08:32:44;282.30;2278.40
70593;DHT22;58294;42.988;20.338;2022-10-16T08:35:11;282.40;2278.40
70593;DHT22;58294;42.988;20.338;2022-10-16T08:37:37;307.30;2304.00
70593;DHT22;58294;42.988;20.338;2022-10-16T08:40:06;307.40;2304.00
70593;DHT22;58294;42.988;20.338;2022-10-16T08:42:36;307.60;2304.00
70593;DHT22;58294;42.988;20.338;2022-10-16T08:45:28;307.70;2304.00
70593;DHT22;58294;42.988;20.338;2022-10-16T08:50:37;307.90;2304.00
70593;DHT22;58294;42.988;20.338;2022-10-16T08:53:04;308.00;2304.00
70593;DHT22;58294;42.988;20.338;2022-10-16T08:55:38;308.10;2304.00
70593;DHT22;58294;42.988;20.338;2022-10-16T08:58:13;332.80;2329.60
70593;DHT22;58294;42.988;20.338;2022-10-16T09:00:39;332.90;2329.60
70593;DHT22;58294;42.988;20.338;2022-10-16T09:17:30;358.60;2329.60
70593;DHT22;58294;42.988;20.338;2022-10-16T09:23:10;359.00;2329.60
70593;DHT22;58294;42.988;20.338;2022-10-16T09:25:40;359.20;2329.60
70593;DHT22;58294;42.988;20.338;2022-10-16T09:28:08;384.00;2329.60
70593;DHT22;58294;42.988;20.338;2022-10-16T09:30:34;384.60;2329.60
70593;DHT22;58294;42.988;20.338;2022-10-16T09:35:42;435.40;2355.20
70593;DHT22;58294;42.988;20.338;2022-10-16T09:38:08;460.90;2380.80
70593;DHT22;58294;42.988;20.338;2022-10-16T09:40:39;461.60;2380.80
70593;DHT22;58294;42.988;20.338;2022-10-16T09:43:19;487.00;2380.80
70593;DHT22;58294;42.988;20.338;2022-10-16T09:46:00;512.50;2380.80
70593;DHT22;58294;42.988;20.338;2022-10-16T09:48:43;537.80;2406.40
70593;DHT22;58294;42.988;20.338;2022-10-16T09:51:28;563.20;2432.00
70593;DHT22;58294;42.988;20.338;2022-10-16T09:53:59;563.90;2432.00
70593;DHT22;58294;42.988;20.338;2022-10-16T09:56:30;589.00;2432.00
70593;DHT22;58294;42.988;20.338;2022-10-16T09:59:12;589.30;2432.00
70593;DHT22;58294;42.988;20.338;2022-10-16T10:01:40;589.60;2432.00
70593;DHT22;58294;42.988;20.338;2022-10-16T10:09:28;614.60;2432.00
70593;DHT22;58294;42.988;20.338;2022-10-16T10:12:00;615.00;2432.00
70593;DHT22;58294;42.988;20.338;2022-10-16T10:17:20;640.20;2432.00
70593;DHT22;58294;42.988;20.338;2022-10-16T10:19:52;640.20;2201.60
70593;DHT22;58294;42.988;20.338;2022-10-16T10:22:24;640.20;2124.80
70593;DHT22;58294;42.988;20.338;2022-10-16T10:30:51;640.90;2278.40
70593;DHT22;58294;42.988;20.338;2022-10-16T10:39:03;691.30;2406.40
70593;DHT22;58294;42.988;20.338;2022-10-16T10:55:49;717.60;2022.40
70593;DHT22;58294;42.988;20.338;2022-10-16T10:58:29;717.60;1843.20
70593;DHT22;58294;42.988;20.338;2022-10-16T11:01:13;717.60;1433.60
70593;DHT22;58294;42.988;20.338;2022-10-16T11:06:22;717.50;1510.40
70593;DHT22;58294;42.988;20.338;2022-10-16T11:09:09;717.60;1408.00
70593;DHT22;58294;42.988;20.338;2022-10-16T11:11:54;717.50;1408.00
70593;DHT22;58294;42.988;20.338;2022-10-16T11:14:26;717.50;1356.80
70593;DHT22;58294;42.988;20.338;2022-10-16T11:17:19;717.30;1382.40
70593;DHT22;58294;42.988;20.338;2022-10-16T11:22:54;717.40;1228.80
70593;DHT22;58294;42.988;20.338;2022-10-16T11:25:25;717.50;1459.20
70593;DHT22;58294;42.988;20.338;2022-10-16T11:28:02;742.50;1484.80
70593;DHT22;58294;42.988;20.338;2022-10-16T11:31:02;742.50;1484.80
70593;DHT22;58294;42.988;20.338;2022-10-16T11:33:29;742.60;1382.40
70593;DHT22;58294;42.988;20.338;2022-10-16T11:39:16;717.10;1100.80
70593;DHT22;58294;42.988;20.338;2022-10-16T11:41:51;691.80;1075.20
70593;DHT22;58294;42.988;20.338;2022-10-16T11:44:38;691.20;972.80
70593;DHT22;58294;42.988;20.338;2022-10-16T11:47:24;665.90;1024.00
70593;DHT22;58294;42.988;20.338;2022-10-16T11:49:55;640.80;1024.00
70593;DHT22;58294;42.988;20.338;2022-10-16T11:52:48;640.30;1049.60
70593;DHT22;58294;42.988;20.338;2022-10-16T11:55:21;640.00;1100.80
70593;DHT22;58294;42.988;20.338;2022-10-16T11:57:57;615.00;1100.80
70593;DHT22;58294;42.988;20.338;2022-10-16T12:00:30;614.80;1075.20
70593;DHT22;58294;42.988;20.338;2022-10-16T12:03:22;614.60;1100.80
70593;DHT22;58294;42.988;20.338;2022-10-16T12:06:11;589.70;1126.40
70593;DHT22;58294;42.988;20.338;2022-10-16T12:08:40;589.50;1075.20
70593;DHT22;58294;42.988;20.338;2022-10-16T12:13:48;589.00;1100.80
70593;DHT22;58294;42.988;20.338;2022-10-16T12:18:42;564.10;1100.80
70593;DHT22;58294;42.988;20.338;2022-10-16T12:21:09;564.00;1100.80
70593;DHT22;58294;42.988;20.338;2022-10-16T12:23:47;563.90;1126.40
70593;DHT22;58294;42.988;20.338;2022-10-16T12:26:13;563.80;1152.00
70593;DHT22;58294;42.988;20.338;2022-10-16T12:28:39;563.70;1100.80
70593;DHT22;58294;42.988;20.338;2022-10-16T12:31:08;563.70;1100.80
70593;DHT22;58294;42.988;20.338;2022-10-16T12:33:37;563.50;1126.40
70593;DHT22;58294;42.988;20.338;2022-10-16T12:36:13;563.40;1126.40
70593;DHT22;58294;42.988;20.338;2022-10-16T12:38:49;563.40;1177.60
70593;DHT22;58294;42.988;20.338;2022-10-16T12:41:28;563.30;1177.60
70593;DHT22;58294;42.988;20.338;2022-10-16T12:43:54;563.20;1177.60
70593;DHT22;58294;42.988;20.338;2022-10-16T12:51:42;538.50;1152.00
70593;DHT22;58294;42.988;20.338;2022-10-16T12:59:17;538.50;1126.40
70593;DHT22;58294;42.988;20.338;2022-10-16T13:19:06;538.10;1152.00
70593;DHT22;58294;42.988;20.338;2022-10-16T13:21:42;538.10;1126.40
70593;DHT22;58294;42.988;20.338;2022-10-16T13:24:27;538.00;1152.00
70593;DHT22;58294;42.988;20.338;2022-10-16T13:29:32;537.90;1152.00
70593;DHT22;58294;42.988;20.338;2022-10-16T13:32:01;537.90;1126.40
70593;DHT22;58294;42.988;20.338;2022-10-16T13:34:32;537.90;1126.40
70593;DHT22;58294;42.988;20.338;2022-10-16T13:36:58;537.90;1126.40
70593;DHT22;58294;42.988;20.338;2022-10-16T13:39:29;537.90;1126.40
70593;DHT22;58294;42.988;20.338;2022-10-16T13:44:47;537.80;1152.00
70593;DHT22;58294;42.988;20.338;2022-10-16T13:47:28;537.80;1126.40
70593;DHT22;58294;42.988;20.338;2022-10-16T13:50:06;537.80;1126.40
70593;DHT22;58294;42.988;20.338;2022-10-16T13:52:32;537.80;1126.40
70593;DHT22;58294;42.988;20.338;2022-10-16T13:54:58;537.70;1152.00
70593;DHT22;58294;42.988;20.338;2022-10-16T13:57:24;537.70;1152.00
70593;DHT22;58294;42.988;20.338;2022-10-16T13:59:51;537.70;1126.40
70593;DHT22;58294;42.988;20.338;2022-10-16T14:04:49;537.70;1126.40
70593;DHT22;58294;42.988;20.338;2022-10-16T14:07:21;537.60;1126.40
70593;DHT22;58294;42.988;20.338;2022-10-16T14:09:50;537.60;1152.00
70593;DHT22;58294;42.988;20.338;2022-10-16T14:12:17;512.90;1126.40
70593;DHT22;58294;42.988;20.338;2022-10-16T14:14:47;512.90;1126.40
70593;DHT22;58294;42.988;20.338;2022-10-16T14:17:16;512.90;1126.40
70593;DHT22;58294;42.988;20.338;2022-10-16T14:19:47;512.80;1126.40
70593;DHT22;58294;42.988;20.338;2022-10-16T14:22:37;512.80;1100.80
70593;DHT22;58294;42.988;20.338;2022-10-16T14:27:56;512.70;1126.40
70593;DHT22;58294;42.988;20.338;2022-10-16T14:30:23;512.60;1126.40
70593;DHT22;58294;42.988;20.338;2022-10-16T14:33:18;512.60;1126.40
70593;DHT22;58294;42.988;20.338;2022-10-16T14:35:45;512.60;1126.40
70593;DHT22;58294;42.988;20.338;2022-10-16T14:38:19;512.60;1100.80
70593;DHT22;58294;42.988;20.338;2022-10-16T14:40:47;512.50;1100.80
70593;DHT22;58294;42.988;20.338;2022-10-16T14:43:33;512.50;1126.40
70593;DHT22;58294;42.988;20.338;2022-10-16T14:46:01;512.50;1126.40
70593;DHT22;58294;42.988;20.338;2022-10-16T14:48:27;512.40;1100.80
70593;DHT22;58294;42.988;20.338;2022-10-16T14:50:53;512.30;1126.40
70593;DHT22;58294;42.988;20.338;2022-10-16T14:53:19;512.30;1126.40
70593;DHT22;58294;42.988;20.338;2022-10-16T14:55:45;512.30;1126.40
70593;DHT22;58294;42.988;20.338;2022-10-16T14:58:20;512.30;1126.40
70593;DHT22;58294;42.988;20.338;2022-10-16T15:00:47;512.30;1100.80
70593;DHT22;58294;42.988;20.338;2022-10-16T15:03:13;512.30;1100.80
70593;DHT22;58294;42.988;20.338;2022-10-16T15:05:39;512.20;1100.80
70593;DHT22;58294;42.988;20.338;2022-10-16T15:08:04;512.20;1126.40
70593;DHT22;58294;42.988;20.338;2022-10-16T15:10:33;512.20;1100.80
70593;DHT22;58294;42.988;20.338;2022-10-16T15:13:01;512.10;1100.80
70593;DHT22;58294;42.988;20.338;2022-10-16T15:15:37;512.10;1100.80
70593;DHT22;58294;42.988;20.338;2022-10-16T15:18:03;512.10;1100.80
70593;DHT22;58294;42.988;20.338;2022-10-16T15:20:34;512.00;1100.80
70593;DHT22;58294;42.988;20.338;2022-10-16T15:23:06;487.30;1100.80
70593;DHT22;58294;42.988;20.338;2022-10-16T15:28:01;487.20;1075.20
70593;DHT22;58294;42.988;20.338;2022-10-16T15:30:28;487.20;1100.80
70593;DHT22;58294;42.988;20.338;2022-10-16T15:32:53;487.10;1100.80
70593;DHT22;58294;42.988;20.338;2022-10-16T15:35:19;487.10;1100.80
70593;DHT22;58294;42.988;20.338;2022-10-16T15:37:47;487.00;1126.40
70593;DHT22;58294;42.988;20.338;2022-10-16T15:40:14;486.80;1126.40
70593;DHT22;58294;42.988;20.338;2022-10-16T15:42:40;486.70;1100.80
70593;DHT22;58294;42.988;20.338;2022-10-16T15:45:06;486.60;1126.40
70593;DHT22;58294;42.988;20.338;2022-10-16T15:47:32;486.40;1126.40
70593;DHT22;58294;42.988;20.338;2022-10-16T15:49:58;486.40;1152.00
70593;DHT22;58294;42.988;20.338;2022-10-16T15:52:24;461.60;1152.00
70593;DHT22;58294;42.988;20.338;2022-10-16T15:54:50;461.50;1177.60
70593;DHT22;58294;42.988;20.338;2022-10-16T15:57:16;461.40;1177.60
70593;DHT22;58294;42.988;20.338;2022-10-16T15:59:41;461.20;1177.60
70593;DHT22;58294;42.988;20.338;2022-10-16T16:02:09;461.20;1203.20
70593;DHT22;58294;42.988;20.338;2022-10-16T16:04:35;461.10;1203.20
70593;DHT22;58294;42.988;20.338;2022-10-16T16:07:01;461.00;1203.20
70593;DHT22;58294;42.988;20.338;2022-10-16T16:09:29;460.90;1203.20
70593;DHT22;58294;42.988;20.338;2022-10-16T16:11:55;436.10;1177.60
70593;DHT22;58294;42.988;20.338;2022-10-16T16:14:21;436.00;1177.60
70593;DHT22;58294;42.988;20.338;2022-10-16T16:16:47;435.90;1203.20
70593;DHT22;58294;42.988;20.338;2022-10-16T16:19:13;435.80;1203.20
70593;DHT22;58294;42.988;20.338;2022-10-16T16:21:38;435.70;1203.20
70593;DHT22;58294;42.988;20.338;2022-10-16T16:24:04;435.60;1203.20
70593;DHT22;58294;42.988;20.338;2022-10-16T16:26:34;435.40;1203.20
70593;DHT22;58294;42.988;20.338;2022-10-16T16:29:03;435.40;1203.20
70593;DHT22;58294;42.988;20.338;2022-10-16T16:31:30;435.20;1228.80
70593;DHT22;58294;42.988;20.338;2022-10-16T16:33:57;435.20;1228.80
70593;DHT22;58294;42.988;20.338;2022-10-16T16:36:23;410.40;1228.80
70593;DHT22;58294;42.988;20.338;2022-10-16T16:38:49;410.40;1228.80
70593;DHT22;58294;42.988;20.338;2022-10-16T16:41:17;410.30;1254.40
70593;DHT22;58294;42.988;20.338;2022-10-16T16:43:43;410.20;1228.80
70593;DHT22;58294;42.988;20.338;2022-10-16T16:46:10;410.10;1228.80
70593;DHT22;58294;42.988;20.338;2022-10-16T16:48:37;410.00;1254.40
70593;DHT22;58294;42.988;20.338;2022-10-16T16:51:11;410.00;1254.40
70593;DHT22;58294;42.988;20.338;2022-10-16T16:53:41;409.90;1254.40